sensor_id;sensor_type;location;lat;lon;timestamp;temperature;humidity
80958;DHT22;70419;42.700;23.316;2023-07-31T00:01:15;22.80;55.90
80958;DHT22;70419;42.700;23.316;2023-07-31T00:03:41;22.80;56.00
80958;DHT22;70419;42.700;23.316;2023-07-31T00:06:07;22.80;56.00
80958;DHT22;70419;42.700;23.316;2023-07-31T00:08:32;22.80;56.00
80958;DHT22;70419;42.700;23.316;2023-07-31T00:10:58;22.80;56.00
80958;DHT22;70419;42.700;23.316;2023-07-31T00:13:24;22.80;55.60
80958;DHT22;70419;42.700;23.316;2023-07-31T00:15:50;22.90;55.50
80958;DHT22;70419;42.700;23.316;2023-07-31T00:18:17;23.00;55.30
80958;DHT22;70419;42.700;23.316;2023-07-31T00:20:42;22.90;55.40
80958;DHT22;70419;42.700;23.316;2023-07-31T00:23:08;22.80;55.80
80958;DHT22;70419;42.700;23.316;2023-07-31T00:25:34;22.70;55.90
80958;DHT22;70419;42.700;23.316;2023-07-31T00:28:00;22.70;56.50
80958;DHT22;70419;42.700;23.316;2023-07-31T00:30:25;22.60;56.80
80958;DHT22;70419;42.700;23.316;2023-07-31T00:32:52;22.60;57.40
80958;DHT22;70419;42.700;23.316;2023-07-31T00:35:18;22.50;57.60
80958;DHT22;70419;42.700;23.316;2023-07-31T00:37:44;22.50;57.90
80958;DHT22;70419;42.700;23.316;2023-07-31T00:40:09;22.50;58.70
80958;DHT22;70419;42.700;23.316;2023-07-31T00:42:35;22.40;59.00
80958;DHT22;70419;42.700;23.316;2023-07-31T00:45:01;22.30;59.20
80958;DHT22;70419;42.700;23.316;2023-07-31T00:47:27;22.20;59.70
80958;DHT22;70419;42.700;23.316;2023-07-31T00:49:53;22.20;60.00
80958;DHT22;70419;42.700;23.316;2023-07-31T00:52:19;22.30;60.20
80958;DHT22;70419;42.700;23.316;2023-07-31T00:54:45;22.10;60.70
80958;DHT22;70419;42.700;23.316;2023-07-31T00:57:11;22.10;60.80
80958;DHT22;70419;42.700;23.316;2023-07-31T00:59:37;22.10;61.00
80958;DHT22;70419;42.700;23.316;2023-07-31T01:02:04;22.00;61.30
80958;DHT22;70419;42.700;23.316;2023-07-31T01:04:30;22.10;61.40
80958;DHT22;70419;42.700;23.316;2023-07-31T01:07:05;22.10;61.40
80958;DHT22;70419;42.700;23.316;2023-07-31T01:10:00;22.00;61.90
80958;DHT22;70419;42.700;23.316;2023-07-31T01:12:28;22.00;62.10
80958;DHT22;70419;42.700;23.316;2023-07-31T01:15:09;21.90;62.00
80958;DHT22;70419;42.700;23.316;2023-07-31T01:17:38;22.00;62.30
80958;DHT22;70419;42.700;23.316;2023-07-31T01:20:08;21.80;62.60
80958;DHT22;70419;42.700;23.316;2023-07-31T01:25:50;21.70;63.10
80958;DHT22;70419;42.700;23.316;2023-07-31T01:28:23;21.60;63.50
80958;DHT22;70419;42.700;23.316;2023-07-31T01:30:50;21.50;64.00
80958;DHT22;70419;42.700;23.316;2023-07-31T01:33:17;21.50;64.10
80958;DHT22;70419;42.700;23.316;2023-07-31T01:35:46;21.40;64.80
80958;DHT22;70419;42.700;23.316;2023-07-31T01:38:14;21.30;65.10
80958;DHT22;70419;42.700;23.316;2023-07-31T01:40:42;21.20;65.70
80958;DHT22;70419;42.700;23.316;2023-07-31T01:43:08;21.10;66.30
80958;DHT22;70419;42.700;23.316;2023-07-31T01:45:34;21.00;67.10
80958;DHT22;70419;42.700;23.316;2023-07-31T01:48:00;21.00;66.90
80958;DHT22;70419;42.700;23.316;2023-07-31T01:50:26;20.90;67.20
80958;DHT22;70419;42.700;23.316;2023-07-31T01:52:51;20.80;68.50
80958;DHT22;70419;42.700;23.316;2023-07-31T01:55:17;20.80;68.20
80958;DHT22;70419;42.700;23.316;2023-07-31T01:57:43;20.70;68.20
80958;DHT22;70419;42.700;23.316;2023-07-31T02:00:09;20.70;68.50
80958;DHT22;70419;42.700;23.316;2023-07-31T02:02:35;20.70;68.40
80958;DHT22;70419;42.700;23.316;2023-07-31T02:05:01;20.80;68.70
80958;DHT22;70419;42.700;23.316;2023-07-31T02:07:26;20.70;68.90
80958;DHT22;70419;42.700;23.316;2023-07-31T02:09:52;20.70;68.90
80958;DHT22;70419;42.700;23.316;2023-07-31T02:12:19;20.80;68.80
80958;DHT22;70419;42.700;23.316;2023-07-31T02:14:45;20.80;68.70
80958;DHT22;70419;42.700;23.316;2023-07-31T02:17:10;20.80;68.70
80958;DHT22;70419;42.700;23.316;2023-07-31T02:19:36;20.90;68.50
80958;DHT22;70419;42.700;23.316;2023-07-31T02:22:01;21.00;68.30
80958;DHT22;70419;42.700;23.316;2023-07-31T02:24:27;21.00;68.30
80958;DHT22;70419;42.700;23.316;2023-07-31T02:26:53;21.10;68.20
80958;DHT22;70419;42.700;23.316;2023-07-31T02:29:19;21.20;67.90
80958;DHT22;70419;42.700;23.316;2023-07-31T02:31:45;21.30;67.60
80958;DHT22;70419;42.700;23.316;2023-07-31T02:34:10;21.30;67.60
80958;DHT22;70419;42.700;23.316;2023-07-31T02:36:36;21.20;67.40
80958;DHT22;70419;42.700;23.316;2023-07-31T02:39:02;21.30;67.70
80958;DHT22;70419;42.700;23.316;2023-07-31T02:41:28;21.30;67.60
80958;DHT22;70419;42.700;23.316;2023-07-31T02:43:54;21.30;67.20
80958;DHT22;70419;42.700;23.316;2023-07-31T02:46:20;21.40;67.10
80958;DHT22;70419;42.700;23.316;2023-07-31T02:48:49;21.40;66.90
80958;DHT22;70419;42.700;23.316;2023-07-31T02:51:15;21.40;67.10
80958;DHT22;70419;42.700;23.316;2023-07-31T02:53:42;21.40;66.60
80958;DHT22;70419;42.700;23.316;2023-07-31T02:56:08;21.60;66.30
80958;DHT22;70419;42.700;23.316;2023-07-31T02:58:34;21.60;66.20
80958;DHT22;70419;42.700;23.316;2023-07-31T03:00:59;21.60;65.70
80958;DHT22;70419;42.700;23.316;2023-07-31T03:03:25;21.60;65.70
80958;DHT22;70419;42.700;23.316;2023-07-31T03:05:51;21.70;65.60
80958;DHT22;70419;42.700;23.316;2023-07-31T03:08:17;21.70;65.40
80958;DHT22;70419;42.700;23.316;2023-07-31T03:10:42;21.70;65.10
80958;DHT22;70419;42.700;23.316;2023-07-31T03:13:08;21.90;65.00
80958;DHT22;70419;42.700;23.316;2023-07-31T03:15:34;21.90;65.00
80958;DHT22;70419;42.700;23.316;2023-07-31T03:18:00;21.90;64.70
80958;DHT22;70419;42.700;23.316;2023-07-31T03:20:26;21.90;64.50
80958;DHT22;70419;42.700;23.316;2023-07-31T03:22:52;22.00;64.50
80958;DHT22;70419;42.700;23.316;2023-07-31T03:25:18;22.10;64.20
80958;DHT22;70419;42.700;23.316;2023-07-31T03:27:43;22.00;64.00
80958;DHT22;70419;42.700;23.316;2023-07-31T03:30:09;22.20;64.00
80958;DHT22;70419;42.700;23.316;2023-07-31T03:32:35;22.20;63.70
80958;DHT22;70419;42.700;23.316;2023-07-31T03:35:01;22.30;63.50
80958;DHT22;70419;42.700;23.316;2023-07-31T03:37:27;22.30;63.30
80958;DHT22;70419;42.700;23.316;2023-07-31T03:39:53;22.30;63.10
80958;DHT22;70419;42.700;23.316;2023-07-31T03:42:18;22.30;63.10
80958;DHT22;70419;42.700;23.316;2023-07-31T03:44:44;22.30;62.90
80958;DHT22;70419;42.700;23.316;2023-07-31T03:47:11;22.40;62.60
80958;DHT22;70419;42.700;23.316;2023-07-31T03:49:37;22.30;63.00
80958;DHT22;70419;42.700;23.316;2023-07-31T03:52:02;22.40;62.80
80958;DHT22;70419;42.700;23.316;2023-07-31T03:54:28;22.30;62.60
80958;DHT22;70419;42.700;23.316;2023-07-31T03:56:54;22.40;62.20
80958;DHT22;70419;42.700;23.316;2023-07-31T03:59:19;22.40;62.30
80958;DHT22;70419;42.700;23.316;2023-07-31T04:01:45;22.40;62.30
80958;DHT22;70419;42.700;23.316;2023-07-31T04:04:11;22.30;62.50
80958;DHT22;70419;42.700;23.316;2023-07-31T04:06:37;22.20;62.80
80958;DHT22;70419;42.700;23.316;2023-07-31T04:09:03;22.10;63.00
80958;DHT22;70419;42.700;23.316;2023-07-31T04:11:28;22.10;63.20
80958;DHT22;70419;42.700;23.316;2023-07-31T04:13:54;22.20;62.80
80958;DHT22;70419;42.700;23.316;2023-07-31T04:16:20;22.20;62.80
80958;DHT22;70419;42.700;23.316;2023-07-31T04:18:45;22.30;62.60
80958;DHT22;70419;42.700;23.316;2023-07-31T04:21:11;22.40;62.80
80958;DHT22;70419;42.700;23.316;2023-07-31T04:23:37;22.30;62.50
80958;DHT22;70419;42.700;23.316;2023-07-31T04:26:03;22.40;62.40
80958;DHT22;70419;42.700;23.316;2023-07-31T04:28:29;22.40;62.60
80958;DHT22;70419;42.700;23.316;2023-07-31T04:30:58;22.20;62.60
80958;DHT22;70419;42.700;23.316;2023-07-31T04:33:24;22.30;62.40
80958;DHT22;70419;42.700;23.316;2023-07-31T04:35:51;22.40;62.00
80958;DHT22;70419;42.700;23.316;2023-07-31T04:38:18;22.50;61.40
80958;DHT22;70419;42.700;23.316;2023-07-31T04:40:44;22.50;61.40
80958;DHT22;70419;42.700;23.316;2023-07-31T04:43:10;22.50;61.50
80958;DHT22;70419;42.700;23.316;2023-07-31T04:45:36;22.50;61.40
80958;DHT22;70419;42.700;23.316;2023-07-31T04:48:02;22.50;61.40
80958;DHT22;70419;42.700;23.316;2023-07-31T04:50:27;22.60;60.70
80958;DHT22;70419;42.700;23.316;2023-07-31T04:52:56;22.50;60.70
80958;DHT22;70419;42.700;23.316;2023-07-31T04:55:22;22.50;61.00
80958;DHT22;70419;42.700;23.316;2023-07-31T04:57:48;22.50;61.10
80958;DHT22;70419;42.700;23.316;2023-07-31T05:00:13;22.60;60.60
80958;DHT22;70419;42.700;23.316;2023-07-31T05:02:39;22.70;61.40
80958;DHT22;70419;42.700;23.316;2023-07-31T05:05:05;22.90;60.10
80958;DHT22;70419;42.700;23.316;2023-07-31T05:07:31;23.20;59.10
80958;DHT22;70419;42.700;23.316;2023-07-31T05:09:56;23.60;57.50
80958;DHT22;70419;42.700;23.316;2023-07-31T05:12:22;24.00;56.40
80958;DHT22;70419;42.700;23.316;2023-07-31T05:14:48;24.40;55.30
80958;DHT22;70419;42.700;23.316;2023-07-31T05:17:14;24.80;53.90
80958;DHT22;70419;42.700;23.316;2023-07-31T05:19:39;25.10;53.00
80958;DHT22;70419;42.700;23.316;2023-07-31T05:22:05;25.30;52.10
80958;DHT22;70419;42.700;23.316;2023-07-31T05:24:31;25.30;51.40
80958;DHT22;70419;42.700;23.316;2023-07-31T05:26:57;25.50;51.30
80958;DHT22;70419;42.700;23.316;2023-07-31T05:29:23;25.50;51.00
80958;DHT22;70419;42.700;23.316;2023-07-31T05:31:48;25.70;50.70
80958;DHT22;70419;42.700;23.316;2023-07-31T05:34:14;25.70;50.10
80958;DHT22;70419;42.700;23.316;2023-07-31T05:36:40;25.90;49.90
80958;DHT22;70419;42.700;23.316;2023-07-31T05:39:06;26.00;49.60
80958;DHT22;70419;42.700;23.316;2023-07-31T05:41:35;26.10;49.00
80958;DHT22;70419;42.700;23.316;2023-07-31T05:44:01;26.10;47.90
80958;DHT22;70419;42.700;23.316;2023-07-31T05:46:26;25.70;49.10
80958;DHT22;70419;42.700;23.316;2023-07-31T05:48:52;25.50;50.60
80958;DHT22;70419;42.700;23.316;2023-07-31T05:51:18;25.40;49.70
80958;DHT22;70419;42.700;23.316;2023-07-31T05:53:43;25.40;49.50
80958;DHT22;70419;42.700;23.316;2023-07-31T05:56:09;25.50;48.90
80958;DHT22;70419;42.700;23.316;2023-07-31T05:58:35;25.60;48.60
80958;DHT22;70419;42.700;23.316;2023-07-31T06:01:01;25.70;48.40
80958;DHT22;70419;42.700;23.316;2023-07-31T06:03:26;25.60;47.80
80958;DHT22;70419;42.700;23.316;2023-07-31T06:05:52;25.60;47.50
80958;DHT22;70419;42.700;23.316;2023-07-31T06:08:18;25.60;47.40
80958;DHT22;70419;42.700;23.316;2023-07-31T06:10:43;25.60;47.40
80958;DHT22;70419;42.700;23.316;2023-07-31T06:13:09;25.70;47.00
80958;DHT22;70419;42.700;23.316;2023-07-31T06:15:35;25.80;47.20
80958;DHT22;70419;42.700;23.316;2023-07-31T06:18:01;26.10;46.80
80958;DHT22;70419;42.700;23.316;2023-07-31T06:20:27;26.40;45.60
80958;DHT22;70419;42.700;23.316;2023-07-31T06:22:53;26.70;44.40
80958;DHT22;70419;42.700;23.316;2023-07-31T06:25:19;27.00;43.50
80958;DHT22;70419;42.700;23.316;2023-07-31T06:27:45;27.30;42.70
80958;DHT22;70419;42.700;23.316;2023-07-31T06:30:11;27.60;41.70
80958;DHT22;70419;42.700;23.316;2023-07-31T06:32:37;27.80;41.30
80958;DHT22;70419;42.700;23.316;2023-07-31T06:35:03;28.00;40.60
80958;DHT22;70419;42.700;23.316;2023-07-31T06:37:29;28.20;40.50
80958;DHT22;70419;42.700;23.316;2023-07-31T06:39:55;28.30;40.10
80958;DHT22;70419;42.700;23.316;2023-07-31T06:42:21;28.30;40.10
80958;DHT22;70419;42.700;23.316;2023-07-31T06:44:47;28.30;40.20
80958;DHT22;70419;42.700;23.316;2023-07-31T06:47:12;28.20;40.40
80958;DHT22;70419;42.700;23.316;2023-07-31T06:49:41;28.20;40.10
80958;DHT22;70419;42.700;23.316;2023-07-31T06:52:07;28.40;39.70
80958;DHT22;70419;42.700;23.316;2023-07-31T06:54:32;28.70;39.60
80958;DHT22;70419;42.700;23.316;2023-07-31T06:56:58;28.60;39.30
80958;DHT22;70419;42.700;23.316;2023-07-31T06:59:24;28.60;38.90
80958;DHT22;70419;42.700;23.316;2023-07-31T07:01:50;28.50;38.60
80958;DHT22;70419;42.700;23.316;2023-07-31T07:04:16;28.40;38.80
80958;DHT22;70419;42.700;23.316;2023-07-31T07:06:41;28.40;39.00
80958;DHT22;70419;42.700;23.316;2023-07-31T07:09:07;28.20;39.00
80958;DHT22;70419;42.700;23.316;2023-07-31T07:11:33;28.00;39.00
80958;DHT22;70419;42.700;23.316;2023-07-31T07:13:59;27.70;39.90
80958;DHT22;70419;42.700;23.316;2023-07-31T07:16:29;27.60;40.20
80958;DHT22;70419;42.700;23.316;2023-07-31T07:18:56;27.60;40.30
80958;DHT22;70419;42.700;23.316;2023-07-31T07:21:21;27.40;40.60
80958;DHT22;70419;42.700;23.316;2023-07-31T07:23:48;27.40;41.20
80958;DHT22;70419;42.700;23.316;2023-07-31T07:26:14;27.40;40.60
80958;DHT22;70419;42.700;23.316;2023-07-31T07:28:39;27.10;41.10
80958;DHT22;70419;42.700;23.316;2023-07-31T07:31:05;27.20;41.30
80958;DHT22;70419;42.700;23.316;2023-07-31T07:33:31;27.40;41.00
80958;DHT22;70419;42.700;23.316;2023-07-31T07:36:00;27.70;40.40
80958;DHT22;70419;42.700;23.316;2023-07-31T07:38:27;27.40;40.70
80958;DHT22;70419;42.700;23.316;2023-07-31T07:40:53;27.40;40.80
80958;DHT22;70419;42.700;23.316;2023-07-31T07:43:19;27.30;40.70
80958;DHT22;70419;42.700;23.316;2023-07-31T07:45:45;27.40;40.70
80958;DHT22;70419;42.700;23.316;2023-07-31T07:48:10;27.60;40.50
80958;DHT22;70419;42.700;23.316;2023-07-31T07:50:39;28.00;39.40
80958;DHT22;70419;42.700;23.316;2023-07-31T07:53:05;28.10;38.50
80958;DHT22;70419;42.700;23.316;2023-07-31T07:55:31;28.10;38.60
80958;DHT22;70419;42.700;23.316;2023-07-31T07:57:57;28.30;38.00
80958;DHT22;70419;42.700;23.316;2023-07-31T08:00:22;28.70;37.40
80958;DHT22;70419;42.700;23.316;2023-07-31T08:02:48;29.70;36.40
80958;DHT22;70419;42.700;23.316;2023-07-31T08:05:14;30.60;34.80
80958;DHT22;70419;42.700;23.316;2023-07-31T08:07:40;31.60;32.60
80958;DHT22;70419;42.700;23.316;2023-07-31T08:10:06;33.10;30.20
80958;DHT22;70419;42.700;23.316;2023-07-31T08:12:32;34.40;28.40
80958;DHT22;70419;42.700;23.316;2023-07-31T08:14:57;34.50;27.50
80958;DHT22;70419;42.700;23.316;2023-07-31T08:17:25;34.60;27.10
80958;DHT22;70419;42.700;23.316;2023-07-31T08:19:51;34.80;26.80
80958;DHT22;70419;42.700;23.316;2023-07-31T08:22:17;35.30;26.40
80958;DHT22;70419;42.700;23.316;2023-07-31T08:24:44;37.10;25.00
80958;DHT22;70419;42.700;23.316;2023-07-31T08:27:09;38.80;23.30
80958;DHT22;70419;42.700;23.316;2023-07-31T08:29:35;40.00;22.30
80958;DHT22;70419;42.700;23.316;2023-07-31T08:32:04;40.60;21.40
80958;DHT22;70419;42.700;23.316;2023-07-31T08:34:31;40.40;21.60
80958;DHT22;70419;42.700;23.316;2023-07-31T08:36:57;40.70;20.90
80958;DHT22;70419;42.700;23.316;2023-07-31T08:39:23;40.80;20.50
80958;DHT22;70419;42.700;23.316;2023-07-31T08:41:48;42.10;19.90
80958;DHT22;70419;42.700;23.316;2023-07-31T08:44:15;43.60;18.70
80958;DHT22;70419;42.700;23.316;2023-07-31T08:46:42;43.60;18.40
80958;DHT22;70419;42.700;23.316;2023-07-31T08:49:09;43.60;18.10
80958;DHT22;70419;42.700;23.316;2023-07-31T08:51:38;43.60;17.80
80958;DHT22;70419;42.700;23.316;2023-07-31T08:54:04;43.80;18.10
80958;DHT22;70419;42.700;23.316;2023-07-31T08:56:32;44.20;17.70
80958;DHT22;70419;42.700;23.316;2023-07-31T08:58:59;45.20;17.20
80958;DHT22;70419;42.700;23.316;2023-07-31T09:01:35;46.90;16.20
80958;DHT22;70419;42.700;23.316;2023-07-31T09:04:02;48.30;15.30
80958;DHT22;70419;42.700;23.316;2023-07-31T09:06:30;49.30;14.40
80958;DHT22;70419;42.700;23.316;2023-07-31T09:08:56;50.00;13.60
80958;DHT22;70419;42.700;23.316;2023-07-31T09:11:24;50.40;13.40
80958;DHT22;70419;42.700;23.316;2023-07-31T09:13:49;50.00;13.40
80958;DHT22;70419;42.700;23.316;2023-07-31T09:16:15;48.90;14.10
80958;DHT22;70419;42.700;23.316;2023-07-31T09:18:56;48.40;14.50
80958;DHT22;70419;42.700;23.316;2023-07-31T09:21:24;47.60;14.70
80958;DHT22;70419;42.700;23.316;2023-07-31T09:23:51;45.80;15.80
80958;DHT22;70419;42.700;23.316;2023-07-31T09:26:36;43.70;17.30
80958;DHT22;70419;42.700;23.316;2023-07-31T09:29:05;42.90;17.90
80958;DHT22;70419;42.700;23.316;2023-07-31T09:31:44;43.60;17.20
80958;DHT22;70419;42.700;23.316;2023-07-31T09:34:11;44.60;16.80
80958;DHT22;70419;42.700;23.316;2023-07-31T09:36:44;44.20;16.90
80958;DHT22;70419;42.700;23.316;2023-07-31T09:39:11;44.70;16.70
80958;DHT22;70419;42.700;23.316;2023-07-31T09:41:39;46.00;15.70
80958;DHT22;70419;42.700;23.316;2023-07-31T09:44:05;46.60;15.60
80958;DHT22;70419;42.700;23.316;2023-07-31T09:46:34;47.70;14.90
80958;DHT22;70419;42.700;23.316;2023-07-31T09:49:11;47.60;14.50
80958;DHT22;70419;42.700;23.316;2023-07-31T09:51:39;46.90;15.00
80958;DHT22;70419;42.700;23.316;2023-07-31T09:54:17;47.80;14.60
80958;DHT22;70419;42.700;23.316;2023-07-31T09:56:45;48.10;14.10
80958;DHT22;70419;42.700;23.316;2023-07-31T09:59:13;49.70;13.40
80958;DHT22;70419;42.700;23.316;2023-07-31T10:01:45;50.50;12.70
80958;DHT22;70419;42.700;23.316;2023-07-31T10:04:12;49.10;13.10
80958;DHT22;70419;42.700;23.316;2023-07-31T10:06:40;48.00;13.90
80958;DHT22;70419;42.700;23.316;2023-07-31T10:09:08;48.50;13.90
80958;DHT22;70419;42.700;23.316;2023-07-31T10:11:45;47.40;14.40
80958;DHT22;70419;42.700;23.316;2023-07-31T10:14:19;46.90;14.60
80958;DHT22;70419;42.700;23.316;2023-07-31T10:16:45;47.90;13.90
80958;DHT22;70419;42.700;23.316;2023-07-31T10:19:12;49.50;13.20
80958;DHT22;70419;42.700;23.316;2023-07-31T10:21:37;48.60;13.40
80958;DHT22;70419;42.700;23.316;2023-07-31T10:24:06;47.10;14.50
80958;DHT22;70419;42.700;23.316;2023-07-31T10:26:32;46.10;15.20
80958;DHT22;70419;42.700;23.316;2023-07-31T10:29:05;46.60;14.60
80958;DHT22;70419;42.700;23.316;2023-07-31T10:31:32;46.00;14.90
80958;DHT22;70419;42.700;23.316;2023-07-31T10:33:59;46.80;14.50
80958;DHT22;70419;42.700;23.316;2023-07-31T10:36:26;48.60;13.60
80958;DHT22;70419;42.700;23.316;2023-07-31T10:38:52;50.50;12.60
80958;DHT22;70419;42.700;23.316;2023-07-31T10:41:29;52.20;11.60
80958;DHT22;70419;42.700;23.316;2023-07-31T10:43:58;52.90;11.00
80958;DHT22;70419;42.700;23.316;2023-07-31T10:46:24;53.10;11.10
80958;DHT22;70419;42.700;23.316;2023-07-31T10:49:00;53.20;10.40
80958;DHT22;70419;42.700;23.316;2023-07-31T10:51:33;51.70;11.50
80958;DHT22;70419;42.700;23.316;2023-07-31T10:54:14;51.70;11.60
80958;DHT22;70419;42.700;23.316;2023-07-31T10:56:50;52.30;11.40
80958;DHT22;70419;42.700;23.316;2023-07-31T10:59:16;53.10;10.50
80958;DHT22;70419;42.700;23.316;2023-07-31T11:01:54;51.90;11.20
80958;DHT22;70419;42.700;23.316;2023-07-31T11:04:26;50.00;12.20
80958;DHT22;70419;42.700;23.316;2023-07-31T11:07:00;49.90;12.30
80958;DHT22;70419;42.700;23.316;2023-07-31T11:09:31;49.10;11.70
80958;DHT22;70419;42.700;23.316;2023-07-31T11:12:00;49.70;12.10
80958;DHT22;70419;42.700;23.316;2023-07-31T11:14:26;51.00;11.60
80958;DHT22;70419;42.700;23.316;2023-07-31T11:16:52;51.40;11.30
80958;DHT22;70419;42.700;23.316;2023-07-31T11:19:24;52.10;11.00
80958;DHT22;70419;42.700;23.316;2023-07-31T11:21:53;54.00;10.20
80958;DHT22;70419;42.700;23.316;2023-07-31T11:24:19;55.10;9.40
80958;DHT22;70419;42.700;23.316;2023-07-31T11:26:52;55.30;9.30
80958;DHT22;70419;42.700;23.316;2023-07-31T11:29:18;52.80;10.40
80958;DHT22;70419;42.700;23.316;2023-07-31T11:31:45;51.70;10.90
80958;DHT22;70419;42.700;23.316;2023-07-31T11:34:12;50.00;11.70
80958;DHT22;70419;42.700;23.316;2023-07-31T11:36:37;49.20;12.00
80958;DHT22;70419;42.700;23.316;2023-07-31T11:39:08;49.70;11.80
80958;DHT22;70419;42.700;23.316;2023-07-31T11:41:40;49.00;12.40
80958;DHT22;70419;42.700;23.316;2023-07-31T11:44:06;47.00;13.60
80958;DHT22;70419;42.700;23.316;2023-07-31T11:46:32;46.50;14.00
80958;DHT22;70419;42.700;23.316;2023-07-31T11:49:01;47.60;13.30
80958;DHT22;70419;42.700;23.316;2023-07-31T11:51:28;49.70;12.10
80958;DHT22;70419;42.700;23.316;2023-07-31T11:53:57;51.50;11.20
80958;DHT22;70419;42.700;23.316;2023-07-31T11:56:24;50.80;11.40
80958;DHT22;70419;42.700;23.316;2023-07-31T11:58:53;51.20;11.10
80958;DHT22;70419;42.700;23.316;2023-07-31T12:01:21;52.30;10.80
80958;DHT22;70419;42.700;23.316;2023-07-31T12:03:48;53.70;10.10
80958;DHT22;70419;42.700;23.316;2023-07-31T12:06:14;55.00;9.50
80958;DHT22;70419;42.700;23.316;2023-07-31T12:08:40;56.10;9.30
80958;DHT22;70419;42.700;23.316;2023-07-31T12:11:07;56.80;8.80
80958;DHT22;70419;42.700;23.316;2023-07-31T12:13:35;56.60;8.70
80958;DHT22;70419;42.700;23.316;2023-07-31T12:16:03;55.60;9.00
80958;DHT22;70419;42.700;23.316;2023-07-31T12:18:33;55.40;9.10
80958;DHT22;70419;42.700;23.316;2023-07-31T12:21:01;55.10;9.20
80958;DHT22;70419;42.700;23.316;2023-07-31T12:23:29;54.70;9.80
80958;DHT22;70419;42.700;23.316;2023-07-31T12:26:16;54.70;9.60
80958;DHT22;70419;42.700;23.316;2023-07-31T12:28:42;54.50;9.80
80958;DHT22;70419;42.700;23.316;2023-07-31T12:31:20;54.80;9.60
80958;DHT22;70419;42.700;23.316;2023-07-31T12:33:48;55.60;9.20
80958;DHT22;70419;42.700;23.316;2023-07-31T12:36:18;55.70;9.00
80958;DHT22;70419;42.700;23.316;2023-07-31T12:38:44;55.40;8.90
80958;DHT22;70419;42.700;23.316;2023-07-31T12:41:10;55.40;8.90
80958;DHT22;70419;42.700;23.316;2023-07-31T12:43:41;53.50;9.80
80958;DHT22;70419;42.700;23.316;2023-07-31T12:46:08;51.60;10.80
80958;DHT22;70419;42.700;23.316;2023-07-31T12:48:34;49.00;12.00
80958;DHT22;70419;42.700;23.316;2023-07-31T12:51:01;46.50;13.40
80958;DHT22;70419;42.700;23.316;2023-07-31T12:53:27;43.80;15.20
80958;DHT22;70419;42.700;23.316;2023-07-31T12:55:53;41.90;16.50
80958;DHT22;70419;42.700;23.316;2023-07-31T12:58:19;41.50;17.00
80958;DHT22;70419;42.700;23.316;2023-07-31T13:00:46;42.20;16.10
80958;DHT22;70419;42.700;23.316;2023-07-31T13:03:12;43.20;15.80
80958;DHT22;70419;42.700;23.316;2023-07-31T13:05:38;45.20;14.70
80958;DHT22;70419;42.700;23.316;2023-07-31T13:08:03;46.90;13.80
80958;DHT22;70419;42.700;23.316;2023-07-31T13:10:29;47.30;13.40
80958;DHT22;70419;42.700;23.316;2023-07-31T13:12:56;47.10;13.40
80958;DHT22;70419;42.700;23.316;2023-07-31T13:15:21;46.20;13.70
80958;DHT22;70419;42.700;23.316;2023-07-31T13:17:47;45.10;14.30
80958;DHT22;70419;42.700;23.316;2023-07-31T13:20:13;43.90;15.10
80958;DHT22;70419;42.700;23.316;2023-07-31T13:22:39;42.00;16.40
80958;DHT22;70419;42.700;23.316;2023-07-31T13:25:05;40.60;17.30
80958;DHT22;70419;42.700;23.316;2023-07-31T13:27:31;39.60;17.90
80958;DHT22;70419;42.700;23.316;2023-07-31T13:29:57;38.70;18.80
80958;DHT22;70419;42.700;23.316;2023-07-31T13:32:23;38.40;19.50
80958;DHT22;70419;42.700;23.316;2023-07-31T13:34:49;38.70;18.70
80958;DHT22;70419;42.700;23.316;2023-07-31T13:37:15;40.00;17.90
80958;DHT22;70419;42.700;23.316;2023-07-31T13:39:41;41.80;16.80
80958;DHT22;70419;42.700;23.316;2023-07-31T13:42:08;43.10;15.80
80958;DHT22;70419;42.700;23.316;2023-07-31T13:44:43;42.90;15.90
80958;DHT22;70419;42.700;23.316;2023-07-31T13:47:09;43.60;15.00
80958;DHT22;70419;42.700;23.316;2023-07-31T13:49:35;43.90;14.90
80958;DHT22;70419;42.700;23.316;2023-07-31T13:52:02;43.10;15.20
80958;DHT22;70419;42.700;23.316;2023-07-31T13:54:29;42.60;15.80
80958;DHT22;70419;42.700;23.316;2023-07-31T13:57:14;42.50;15.90
80958;DHT22;70419;42.700;23.316;2023-07-31T13:59:40;41.90;16.10
80958;DHT22;70419;42.700;23.316;2023-07-31T14:02:05;41.40;16.50
80958;DHT22;70419;42.700;23.316;2023-07-31T14:04:31;41.00;16.90
80958;DHT22;70419;42.700;23.316;2023-07-31T14:06:57;40.10;17.40
80958;DHT22;70419;42.700;23.316;2023-07-31T14:09:23;39.50;17.80
80958;DHT22;70419;42.700;23.316;2023-07-31T14:11:49;39.30;18.10
80958;DHT22;70419;42.700;23.316;2023-07-31T14:14:14;39.40;18.20
80958;DHT22;70419;42.700;23.316;2023-07-31T14:16:40;38.80;18.80
80958;DHT22;70419;42.700;23.316;2023-07-31T14:19:06;37.90;19.70
80958;DHT22;70419;42.700;23.316;2023-07-31T14:21:33;37.80;20.10
80958;DHT22;70419;42.700;23.316;2023-07-31T14:23:59;37.60;20.30
80958;DHT22;70419;42.700;23.316;2023-07-31T14:26:25;37.70;20.30
80958;DHT22;70419;42.700;23.316;2023-07-31T14:28:51;38.90;20.30
80958;DHT22;70419;42.700;23.316;2023-07-31T14:31:16;39.60;18.70
80958;DHT22;70419;42.700;23.316;2023-07-31T14:33:42;39.90;18.70
80958;DHT22;70419;42.700;23.316;2023-07-31T14:36:08;40.10;18.70
80958;DHT22;70419;42.700;23.316;2023-07-31T14:38:34;40.50;18.50
80958;DHT22;70419;42.700;23.316;2023-07-31T14:41:00;40.50;18.70
80958;DHT22;70419;42.700;23.316;2023-07-31T14:43:25;40.20;18.70
80958;DHT22;70419;42.700;23.316;2023-07-31T14:45:51;40.00;19.00
80958;DHT22;70419;42.700;23.316;2023-07-31T14:48:18;40.00;19.00
80958;DHT22;70419;42.700;23.316;2023-07-31T14:50:44;40.50;18.70
80958;DHT22;70419;42.700;23.316;2023-07-31T14:53:10;41.50;18.00
80958;DHT22;70419;42.700;23.316;2023-07-31T14:55:36;42.60;17.20
80958;DHT22;70419;42.700;23.316;2023-07-31T14:58:02;43.20;16.60
80958;DHT22;70419;42.700;23.316;2023-07-31T15:00:28;43.40;16.40
80958;DHT22;70419;42.700;23.316;2023-07-31T15:02:54;43.80;16.30
80958;DHT22;70419;42.700;23.316;2023-07-31T15:05:21;44.10;16.00
80958;DHT22;70419;42.700;23.316;2023-07-31T15:07:47;44.30;16.00
80958;DHT22;70419;42.700;23.316;2023-07-31T15:10:14;44.40;15.80
80958;DHT22;70419;42.700;23.316;2023-07-31T15:12:40;44.20;15.90
80958;DHT22;70419;42.700;23.316;2023-07-31T15:15:08;44.30;15.90
80958;DHT22;70419;42.700;23.316;2023-07-31T15:17:33;44.00;16.10
80958;DHT22;70419;42.700;23.316;2023-07-31T15:19:59;44.00;16.30